Nearby METAR Reports

 

KMLP - Mullan Pass, Idaho, USA
Distance from station: NE 41mi, 66km
Updated: Mon, 04-Mar-2024 7:01pm PST
Snow, Freezing, Fog, Overcast
Snow, Freezing, Fog, Overcast
 Wind from varies
Wind: varies 3 mph , 6 km/h
Temperature: 16°F , -9°C
Dew Point: 12°F , -11°C
Humidity: 86%
Barometer: 29.70 inHg , 1005.8 hPa
Summary: Snow, Freezing, Fog
Clouds: Overcast
Visibility: 1/2 mile , 0.8 km
Cloud details: Overcast 700 ft
2024/03/05 03:01 KMLP 050301Z AUTO VRB03KT 1/2SM SN FZFG VV007 M09/M11 A2970 RMK AO2 P0000 T10941106 $
KPUW - Pullman/Moscow, Washington, USA
Distance from station: SW 42mi, 68km
Updated: Mon, 04-Mar-2024 6:53pm PST
Clear
Clear
 Wind from SW
Wind: SW 6 mph , 9 km/h
Temperature: 30°F , -1°C
Wind Chill: 24°F , -4°C
Dew Point: 19°F , -7°C
Humidity: 64%
Barometer: 29.89 inHg , 1012.2 hPa
Clouds: Clear
Visibility: 10 miles , 16 km
2024/03/05 02:53 KPUW 050253Z AUTO 22005KT 10SM CLR M01/M07 A2989 RMK AO2 SLP145 T10061072 53011
 
KCOE - Coeur D'alene, Idaho, USA
Distance from station: NNW 49mi, 79km
Updated: Mon, 04-Mar-2024 6:56pm PST
Light snow, Mist, Overcast
Light snow, Mist, Overcast
 Wind from S
Wind: S 6 mph , 9 km/h
Temperature: 30°F , -1°C
Wind Chill: 24°F , -4°C
Dew Point: 30°F , -1°C
Humidity: 100%
Barometer: 29.86 inHg , 1011.2 hPa
Summary: Light snow, Mist
Clouds: Overcast
Visibility: 6 miles , 10 km
Cloud details: Mostly Cloudy 1000 ft
Mostly Cloudy 2100 ft
Overcast 7000 ft
2024/03/05 02:56 KCOE 050256Z AUTO 19005KT 6SM -SN BR BKN010 BKN021 OVC070 M01/M01 A2986 RMK AO2 CIG 005V017 SLP152 6//// T10111011 53008 FZRANO PNO $
KSFF - Spokane/Felts, Washington, USA
Distance from station: NW 59mi, 94km
Updated: Mon, 04-Mar-2024 6:53pm PST
Clear
Clear
 Wind from calm
Wind: Calm
Temperature: 30°F , -1°C
Dew Point: 28°F , -2°C
Humidity: 93%
Barometer: 29.86 inHg , 1011.2 hPa
Clouds: Clear
Visibility: 10 miles , 16 km
2024/03/05 02:53 KSFF 050253Z 00000KT 10SM CLR M01/M02 A2986 RMK AO2 SNE01 SLP129 P0000 60001 I1000 I3000 T10061017 50008
 
KLWS - Lewiston, Idaho, USA
Distance from station: SSW 59mi, 96km
Updated: Mon, 04-Mar-2024 6:56pm PST
Few Clouds
Few Clouds
 Wind from SSE
Wind: SSE 5 mph , 7 km/h
Temperature: 37°F , 3°C
Wind Chill: 33°F , 1°C
Dew Point: 21°F , -6°C
Humidity: 52%
Barometer: 29.91 inHg , 1012.9 hPa
Clouds: Few Clouds
Visibility: 10 miles , 16 km
Cloud details: Few Clouds 7500 ft
2024/03/05 02:56 KLWS 050256Z 16004KT 10SM FEW075 03/M06 A2991 RMK AO2 SLP141 T00331061 53008
KGEG - Spokane/Metro, Washington, USA
Distance from station: WNW 64mi, 103km
Updated: Mon, 04-Mar-2024 6:53pm PST
Mostly Cloudy
Mostly Cloudy
 Wind from SW
Wind: SW 9 mph , 15 km/h
Temperature: 30°F , -1°C
Wind Chill: 22°F , -6°C
Dew Point: 21°F , -6°C
Humidity: 69%
Barometer: 29.83 inHg , 1010.2 hPa
Clouds: Mostly Cloudy
Visibility: 10 miles , 16 km
Cloud details: Partly Cloudy 5000 ft
Mostly Cloudy 11000 ft
2024/03/05 02:53 KGEG 050253Z 23008KT 10SM SCT050 BKN110 M01/M06 A2983 RMK AO2 SLP124 60000 T10061056 51010
 
KSKA - Fairchild Afb, Washington, USA
Distance from station: WNW 68mi, 110km
Updated: Mon, 04-Mar-2024 6:55pm PST
Clear
Clear
 Wind from WSW
Wind: WSW 7 mph , 11 km/h
Temperature: 30°F , -1°C
Wind Chill: 23°F , -5°C
Dew Point: 23°F , -5°C
Humidity: 75%
Barometer: 29.82 inHg , 1009.8 hPa
Clouds: Clear
Visibility: 10 miles , 16 km
2024/03/05 02:55 KSKA 050255Z 24006KT 10SM CLR M01/M05 A2982 RMK AO2A SLP122 60000 T10101052 51010 $